RoSS Sea — WDE3122 — position and weather

sailwx.info

Track history (hours):
 
Tides and Currents Weather Stations Pressure Air Temp Water Temp Dewpoint Dewpoint Depression Visibility Wind Speed Wind Dir Waves Ship Positions

RoSS Sea

Owner: Kirby Inland Marine, LP, Houston, TX. More information available from US FCC via Universal Licensing System and Coast Guard Vessel Documentation Center.

Last reported at 2017-Oct-18 13:50 UTC. Time now 2017-Oct-18 16:43 UTC.
Position N 39°59' W 073°57'.

Length 30 m; draft 5 m.

Type: Towing. MMSI: 367334360.

Date/timePositionNaut miles runAvg speedWind from/ knotsBaromVisibWave heightAir tempDewpointWater temp
2017-Oct-18 13:50N 39°59' W 073°57'2 7.3
2017-Oct-18 13:30N 39°56' W 073°57'4 7.4
2017-Oct-18 13:00N 39°53' W 073°58'4 7.5
2017-Oct-18 12:26N 39°48' W 073°58'3 7.5
2017-Oct-18 12:00N 39°45' W 073°59'4 7.6
2017-Oct-18 11:30N 39°42' W 074°01'4 7.6
2017-Oct-18 11:00N 39°38' W 074°02'4 7.6
2017-Oct-18 10:30N 39°34' W 074°04'4 7.6
2017-Oct-18 10:00N 39°31' W 074°06'4 7.5
2017-Oct-18 09:28N 39°27' W 074°08'3 7.5
2017-Oct-18 09:00N 39°24' W 074°10'5 7.4
2017-Oct-18 08:20N 39°20' W 074°13'17 7.2
2017-Oct-18 05:56N 39°04' W 074°21'4 6.9
2017-Oct-18 05:24N 39°00' W 074°23'3 6.8
2017-Oct-18 04:58N 38°58' W 074°25'6 6.7
2017-Oct-18 04:08N 38°52' W 074°27'  
2017-Oct-12 01:10N 38°51' W 076°26'1 7.5
2017-Oct-12 01:00N 38°53' W 076°25'4 7.6
2017-Oct-12 00:30N 38°56' W 076°24'4 7.5
2017-Oct-12 00:00N 38°60' W 076°23'4 7.9
2017-Oct-11 23:30N 39°04' W 076°24'5 8.0
2017-Oct-11 22:54N 39°09' W 076°25'3 7.8
2017-Oct-11 22:30N 39°11' W 076°27'4 7.9
2017-Oct-11 22:00N 39°13' W 076°32'3 6.2
2017-Oct-11 21:31N 39°15' W 076°34'0 0.5
2017-Oct-11 21:00N 39°15' W 076°34'0 0.1
2017-Oct-11 20:19N 39°15' W 076°34'0 0.0
2017-Oct-11 19:31N 39°15' W 076°34'0 0.0
2017-Oct-11 19:19N 39°15' W 076°34'0 0.0
2017-Oct-11 18:55N 39°15' W 076°34'0 0.0
2017-Oct-11 18:13N 39°15' W 076°34'0 0.0
2017-Oct-11 17:58N 39°15' W 076°34'0 0.0
2017-Oct-11 17:28N 39°15' W 076°34'0 0.0
2017-Oct-11 16:55N 39°15' W 076°34'2 0.1
2017-Oct-10 23:58N 39°14' W 076°33'0 0.0
2017-Oct-10 23:28N 39°14' W 076°33'0 0.0
2017-Oct-10 22:55N 39°14' W 076°33'0 0.0
2017-Oct-10 22:28N 39°14' W 076°33'0 0.0
2017-Oct-10 21:58N 39°14' W 076°33'0 0.0
2017-Oct-10 21:28N 39°14' W 076°33'0 0.0
2017-Oct-10 20:58N 39°14' W 076°33'0 0.0
2017-Oct-10 20:25N 39°14' W 076°33'0 0.0
2017-Oct-10 19:58N 39°14' W 076°33'0 0.0
2017-Oct-10 19:25N 39°14' W 076°33'0 0.0
2017-Oct-10 18:37N 39°14' W 076°33'0 0.0
2017-Oct-10 18:28N 39°14' W 076°33'0 0.0
2017-Oct-10 17:52N 39°14' W 076°33'0 0.0
2017-Oct-10 17:28N 39°14' W 076°33'0 0.1
2017-Oct-10 16:58N 39°14' W 076°33'0 0.0
2017-Oct-10 15:49N 39°14' W 076°33'0 0.0
2017-Oct-10 15:25N 39°14' W 076°33'0 0.0
2017-Oct-10 14:55N 39°14' W 076°33'0 0.0
2017-Oct-10 13:58N 39°14' W 076°33'0 0.0
2017-Oct-10 13:28N 39°14' W 076°33'0 0.1
2017-Oct-10 12:52N 39°14' W 076°33'0 0.2
2017-Oct-10 12:28N 39°14' W 076°33'0 0.1
2017-Oct-10 12:00N 39°14' W 076°33'2 3.3
2017-Oct-10 11:30N 39°12' W 076°31'4 8.2
2017-Oct-10 11:00N 39°11' W 076°26'4 7.8
2017-Oct-10 10:30N 39°07' W 076°24'3 6.9
2017-Oct-10 10:00N 39°04' W 076°23'3 6.0
2017-Oct-10 09:30N 39°01' W 076°22'3 6.2
2017-Oct-10 09:00N 38°58' W 076°24'3 6.6
2017-Oct-10 08:30N 38°55' W 076°25'3 6.1
2017-Oct-10 08:00N 38°52' W 076°26'1 2.0
2017-Oct-10 07:30N 38°51' W 076°26'3 6.4
2017-Oct-10 07:00N 38°48' W 076°26'9 6.7
2017-Oct-10 05:44N 38°39' W 076°27'2 6.7
2017-Oct-10 05:23N 38°37' W 076°27'37 6.1
2017-Oct-09 23:22N 38°00' W 076°21'3 7.4
2017-Oct-09 22:59N 38°02' W 076°24'4 7.2
2017-Oct-09 22:23N 38°05' W 076°28'4 6.9
2017-Oct-09 21:51N 38°07' W 076°32'  
Track history (hours):
 
Tides and Currents Weather Stations Pressure Air Temp Water Temp Dewpoint Dewpoint Depression Visibility Wind Speed Wind Dir Waves Ship Positions

RoSS Sea

Owner: Kirby Inland Marine, LP, Houston, TX. More information available from US FCC via Universal Licensing System and Coast Guard Vessel Documentation Center.

Last reported at 2017-Oct-18 13:50 UTC. Time now 2017-Oct-18 16:43 UTC.
Position N 39°59' W 073°57'.

Length 30 m; draft 5 m.

Type: Towing. MMSI: 367334360.

Date/timePositionNaut miles runAvg speedWind from/ knotsBaromVisibWave heightAir tempDewpointWater temp
2017-Oct-18 13:50N 39°59' W 073°57'2 7.3
2017-Oct-18 13:30N 39°56' W 073°57'4 7.4
2017-Oct-18 13:00N 39°53' W 073°58'4 7.5
2017-Oct-18 12:26N 39°48' W 073°58'3 7.5
2017-Oct-18 12:00N 39°45' W 073°59'4 7.6
2017-Oct-18 11:30N 39°42' W 074°01'4 7.6
2017-Oct-18 11:00N 39°38' W 074°02'4 7.6
2017-Oct-18 10:30N 39°34' W 074°04'4 7.6
2017-Oct-18 10:00N 39°31' W 074°06'4 7.5
2017-Oct-18 09:28N 39°27' W 074°08'3 7.5
2017-Oct-18 09:00N 39°24' W 074°10'5 7.4
2017-Oct-18 08:20N 39°20' W 074°13'17 7.2
2017-Oct-18 05:56N 39°04' W 074°21'4 6.9
2017-Oct-18 05:24N 39°00' W 074°23'3 6.8
2017-Oct-18 04:58N 38°58' W 074°25'6 6.7
2017-Oct-18 04:08N 38°52' W 074°27'  
2017-Oct-12 01:10N 38°51' W 076°26'1 7.5
2017-Oct-12 01:00N 38°53' W 076°25'4 7.6
2017-Oct-12 00:30N 38°56' W 076°24'4 7.5
2017-Oct-12 00:00N 38°60' W 076°23'4 7.9
2017-Oct-11 23:30N 39°04' W 076°24'5 8.0
2017-Oct-11 22:54N 39°09' W 076°25'3 7.8
2017-Oct-11 22:30N 39°11' W 076°27'4 7.9
2017-Oct-11 22:00N 39°13' W 076°32'3 6.2
2017-Oct-11 21:31N 39°15' W 076°34'0 0.5
2017-Oct-11 21:00N 39°15' W 076°34'0 0.1
2017-Oct-11 20:19N 39°15' W 076°34'0 0.0
2017-Oct-11 19:31N 39°15' W 076°34'0 0.0
2017-Oct-11 19:19N 39°15' W 076°34'0 0.0
2017-Oct-11 18:55N 39°15' W 076°34'0 0.0
2017-Oct-11 18:13N 39°15' W 076°34'0 0.0
2017-Oct-11 17:58N 39°15' W 076°34'0 0.0
2017-Oct-11 17:28N 39°15' W 076°34'0 0.0
2017-Oct-11 16:55N 39°15' W 076°34'2 0.1
2017-Oct-10 23:58N 39°14' W 076°33'0 0.0
2017-Oct-10 23:28N 39°14' W 076°33'0 0.0
2017-Oct-10 22:55N 39°14' W 076°33'0 0.0
2017-Oct-10 22:28N 39°14' W 076°33'0 0.0
2017-Oct-10 21:58N 39°14' W 076°33'0 0.0
2017-Oct-10 21:28N 39°14' W 076°33'0 0.0
2017-Oct-10 20:58N 39°14' W 076°33'0 0.0
2017-Oct-10 20:25N 39°14' W 076°33'0 0.0
2017-Oct-10 19:58N 39°14' W 076°33'0 0.0
2017-Oct-10 19:25N 39°14' W 076°33'0 0.0
2017-Oct-10 18:37N 39°14' W 076°33'0 0.0
2017-Oct-10 18:28N 39°14' W 076°33'0 0.0
2017-Oct-10 17:52N 39°14' W 076°33'0 0.0
2017-Oct-10 17:28N 39°14' W 076°33'0 0.1
2017-Oct-10 16:58N 39°14' W 076°33'0 0.0
2017-Oct-10 15:49N 39°14' W 076°33'0 0.0
2017-Oct-10 15:25N 39°14' W 076°33'0 0.0
2017-Oct-10 14:55N 39°14' W 076°33'0 0.0
2017-Oct-10 13:58N 39°14' W 076°33'0 0.0
2017-Oct-10 13:28N 39°14' W 076°33'0 0.1
2017-Oct-10 12:52N 39°14' W 076°33'0 0.2
2017-Oct-10 12:28N 39°14' W 076°33'0 0.1
2017-Oct-10 12:00N 39°14' W 076°33'2 3.3
2017-Oct-10 11:30N 39°12' W 076°31'4 8.2
2017-Oct-10 11:00N 39°11' W 076°26'4 7.8
2017-Oct-10 10:30N 39°07' W 076°24'3 6.9
2017-Oct-10 10:00N 39°04' W 076°23'3 6.0
2017-Oct-10 09:30N 39°01' W 076°22'3 6.2
2017-Oct-10 09:00N 38°58' W 076°24'3 6.6
2017-Oct-10 08:30N 38°55' W 076°25'3 6.1
2017-Oct-10 08:00N 38°52' W 076°26'1 2.0
2017-Oct-10 07:30N 38°51' W 076°26'3 6.4
2017-Oct-10 07:00N 38°48' W 076°26'9 6.7
2017-Oct-10 05:44N 38°39' W 076°27'2 6.7
2017-Oct-10 05:23N 38°37' W 076°27'37 6.1
2017-Oct-09 23:22N 38°00' W 076°21'3 7.4
2017-Oct-09 22:59N 38°02' W 076°24'4 7.2
2017-Oct-09 22:23N 38°05' W 076°28'4 6.9
2017-Oct-09 21:51N 38°07' W 076°32'  

Dump ship's entire track history